Nearby METAR Reports

 

KSJC - San Jose, California, USA
Distance from station: NE 14km
Updated: 30/07/2021 16:53
Few Clouds
Few Clouds
 Wind from calm
Wind: Calm
Temperature: 18°C
Dew Point: 14°C
Humidity: 78%
Barometer: 1013.2 hPa
Clouds: Few Clouds
Visibility: 13 km
Cloud details: Few Clouds 274 m
Few Clouds 457 m
Few Clouds 3048 m
2021/07/30 14:53 KSJC 301453Z 00000KT 8SM FEW009 FEW015 FEW100 18/14 A2992 RMK AO2 SLP130 T01780144 53009
KNUQ - Moffett Nas/Mtn, California, USA
Distance from station: N 14km
Updated: 30/07/2021 17:30
Overcast
Overcast
 Wind from N
Wind: N 6 km/h
Temperature: 18°C
Dew Point: 15°C
Humidity: 83%
Barometer: 1013.5 hPa
Clouds: Overcast
Visibility: 14 km
Cloud details: Overcast 274 m
2021/07/30 15:30 KNUQ 301530Z AUTO 01003KT 9SM OVC009 18/15 A2993 RMK AO2
 
KPAO - Palo Alto, California, USA
Distance from station: NNW 23km
Updated: 30/07/2021 16:47
Overcast
Overcast
 Wind from calm
Wind: Calm
Temperature: 16°C
Dew Point: 14°C
Humidity: 88%
Barometer: 1013.5 hPa
Clouds: Overcast
Visibility: 13 km
Cloud details: Overcast 183 m
2021/07/30 14:47 KPAO 301447Z 00000KT 8SM OVC006 16/14 A2993
KRHV - San Jose/Reid, California, USA
Distance from station: ENE 19km
Updated: 30/07/2021 16:47
Partly cloudy
Partly cloudy
 Wind from calm
Wind: Calm
Temperature: 18°C
Dew Point: 13°C
Humidity: 73%
Barometer: 1013.5 hPa
Clouds: Partly cloudy
Visibility: 16 km
Cloud details: Partly cloudy 3048 m
2021/07/30 14:47 KRHV 301447Z 00000KT 10SM SCT100 18/13 A2993
 
KOAK - Oakland, California, USA
Distance from station: NNW 50km
Updated: 30/07/2021 16:53
Overcast
Overcast
 Wind from varies
Wind: varies 6 km/h
Temperature: 16°C
Dew Point: 13°C
Humidity: 83%
Barometer: 1013.5 hPa
Clouds: Overcast
Visibility: 16 km
Cloud details: Overcast 183 m
2021/07/30 14:53 KOAK 301453Z VRB03KT 10SM OVC006 16/13 A2993 RMK AO2 SLP134 T01560133 53010
KSQL - San Carlos Airpo, California, USA
Distance from station: NW 34km
Updated: 30/07/2021 17:47
Overcast
Overcast
 Wind from calm
Wind: Calm
Temperature: 17°C
Dew Point: 15°C
Humidity: 88%
Barometer: 1013.9 hPa
Clouds: Overcast
Visibility: 16 km
Cloud details: Overcast 244 m
2021/07/30 15:47 KSQL 301547Z 00000KT 10SM OVC008 17/15 A2994
 
KSFO - San Francisco, California, USA
Distance from station: NW 49km
Updated: 30/07/2021 17:42
Partly cloudy
Partly cloudy
 Wind from NW
Wind: NW 13 km/h
Temperature: 16°C
Dew Point: 13°C
Humidity: 83%
Barometer: 1013.5 hPa
Clouds: Partly cloudy
Visibility: 16 km
Cloud details: Few Clouds 122 m
Partly cloudy 274 m
2021/07/30 15:42 KSFO 301542Z 32007KT 10SM FEW004 SCT009 16/13 A2993 RMK AO2 T01610133 $
KE16 - San Martin, California, USA
Distance from station: ESE 43km
Updated: 30/07/2021 17:35
Overcast
Overcast
 Wind from SE
Wind: SE 13 km/h
Temperature: 15°C
Dew Point: 13°C
Humidity: 88%
Barometer: 1014.9 hPa
Clouds: Overcast
Visibility: 13 km
Cloud details: Overcast 152 m
2021/07/30 15:35 KE16 301535Z AUTO 14007KT 8SM OVC005 15/13 A2997 RMK AO2
 
KWVI - Watsonville, California, USA
Distance from station: SSE 44km
Updated: 30/07/2021 16:53
Mist, Overcast
Mist, Overcast
 Wind from SW
Wind: SW 6 km/h
Temperature: 13°C
Dew Point: 13°C
Humidity: 100%
Barometer: 1014.2 hPa
Summary: Mist
Clouds: Overcast
Visibility: 5 km
Cloud details: Overcast 91 m
2021/07/30 14:53 KWVI 301453Z AUTO 23003KT 3SM BR OVC003 13/13 A2995 RMK AO2 SLP141 T01330133 53010
KHAF - Half Moon Bay, California, USA
Distance from station: WNW 50km
Updated: 09/07/2021 16:35
NOT Current
Light rain, Clear
Light rain, Clear
 
Temperature: 13°C
Dew Point: 12°C
Humidity: 94%
Barometer: 1012.9 hPa
Summary: Light rain
Clouds: Clear
Visibility: 6 km
2021/07/09 14:35 KHAF 091435Z AUTO 4SM -RA CLR 13/12 A2991 RMK AO2
 
KHWD - Hayward, California, USA
Distance from station: N 44km
Updated: 30/07/2021 16:54
Overcast
Overcast
 Wind from N
Wind: N 6 km/h
Temperature: 15°C
Dew Point: 13°C
Humidity: 88%
Barometer: 1013.2 hPa
Clouds: Overcast
Visibility: 14 km
Cloud details: Overcast 183 m
2021/07/30 14:54 KHWD 301454Z 35003KT 9SM OVC006 15/13 A2992 RMK AO2 SLP141 T01500133 53011
KLVK - Livermore, California, USA
Distance from station: NNE 51km
Updated: 30/07/2021 16:53
Clear
Clear
 Wind from W
Wind: W 11 km/h
Temperature: 20°C
Dew Point: 13°C
Humidity: 64%
Barometer: 1012.2 hPa
Clouds: Clear
Visibility: 16 km
2021/07/30 14:53 KLVK 301453Z 26006KT 10SM CLR 20/13 A2989 RMK AO2 SLP118 T02000133 53011